Terminal Aerodrome Forecast
Issued by NWS

Home | Current Version | Previous Version | Text Only | Print | Product List | Glossary On
Versions: 1 2 3 4 5 6 7 8 9 10 11 12 13 14 15 16
000
FTUS43 KMQT 181500 AAA
TAFIWD
TAF AMD
KIWD 181523Z 1815/1912 VRB03KT P6SM OVC030
     FM181900 01006KT P6SM SKC
     FM190100 11004KT P6SM BKN150
     FM190700 15013KT P6SM BKN050
      AMD LTD TO CLD VIS AND WIND=

USA.gov is the U.S. government's official web portal to all federal, state and local government web resources and services.